sensor_id;sensor_type;location;lat;lon;timestamp;pressure;altitude;pressure_sealevel;temperature;humidity
54876;BME280;40764;48.472;8.166;2023-02-01T00:01:43;99020.81;;;4.19;97.67
54876;BME280;40764;48.472;8.166;2023-02-01T00:07:46;99012.44;;;4.32;96.73
54876;BME280;40764;48.472;8.166;2023-02-01T00:13:47;99008.81;;;4.50;96.03
54876;BME280;40764;48.472;8.166;2023-02-01T00:19:47;99005.63;;;4.53;94.32
54876;BME280;40764;48.472;8.166;2023-02-01T00:25:48;99000.09;;;4.71;94.05
54876;BME280;40764;48.472;8.166;2023-02-01T00:31:50;98992.69;;;4.66;93.73
54876;BME280;40764;48.472;8.166;2023-02-01T00:37:51;98977.13;;;4.74;92.74
54876;BME280;40764;48.472;8.166;2023-02-01T00:43:52;98953.03;;;4.37;93.37
54876;BME280;40764;48.472;8.166;2023-02-01T00:49:52;98971.41;;;4.35;93.59
54876;BME280;40764;48.472;8.166;2023-02-01T00:55:52;98953.00;;;4.49;92.41
54876;BME280;40764;48.472;8.166;2023-02-01T01:01:53;98958.88;;;4.57;91.73
54876;BME280;40764;48.472;8.166;2023-02-01T01:07:53;98950.41;;;4.65;91.27
54876;BME280;40764;48.472;8.166;2023-02-01T01:13:55;98950.66;;;4.52;92.35
54876;BME280;40764;48.472;8.166;2023-02-01T01:20:12;98950.06;;;4.50;95.00
54876;BME280;40764;48.472;8.166;2023-02-01T01:26:23;98954.28;;;4.58;92.94
54876;BME280;40764;48.472;8.166;2023-02-01T01:32:23;98961.00;;;4.55;92.75
54876;BME280;40764;48.472;8.166;2023-02-01T01:38:24;98956.75;;;4.59;92.37
54876;BME280;40764;48.472;8.166;2023-02-01T01:44:59;98957.13;;;4.51;92.72
54876;BME280;40764;48.472;8.166;2023-02-01T01:51:03;98950.88;;;4.51;93.50
54876;BME280;40764;48.472;8.166;2023-02-01T01:57:09;98952.09;;;4.43;93.74
54876;BME280;40764;48.472;8.166;2023-02-01T02:03:17;98935.13;;;4.48;94.00
54876;BME280;40764;48.472;8.166;2023-02-01T02:09:18;98935.00;;;4.31;94.91
54876;BME280;40764;48.472;8.166;2023-02-01T02:15:19;98941.84;;;4.45;93.46
54876;BME280;40764;48.472;8.166;2023-02-01T02:34:32;98919.59;;;4.43;93.25
54876;BME280;40764;48.472;8.166;2023-02-01T02:40:47;98912.19;;;4.39;92.60
54876;BME280;40764;48.472;8.166;2023-02-01T02:46:50;98913.59;;;4.41;92.90
54876;BME280;40764;48.472;8.166;2023-02-01T02:53:14;98908.78;;;4.31;92.85
54876;BME280;40764;48.472;8.166;2023-02-01T02:59:34;98914.19;;;4.31;92.13
54876;BME280;40764;48.472;8.166;2023-02-01T03:05:53;98908.91;;;4.37;91.97
54876;BME280;40764;48.472;8.166;2023-02-01T03:11:58;98916.22;;;4.36;92.81
54876;BME280;40764;48.472;8.166;2023-02-01T03:18:28;98921.13;;;4.27;93.79
54876;BME280;40764;48.472;8.166;2023-02-01T03:24:36;98927.13;;;4.29;93.43
54876;BME280;40764;48.472;8.166;2023-02-01T03:30:40;98928.91;;;4.35;92.37
54876;BME280;40764;48.472;8.166;2023-02-01T03:36:50;98935.25;;;4.41;91.81
54876;BME280;40764;48.472;8.166;2023-02-01T03:42:54;98950.31;;;4.49;90.96
54876;BME280;40764;48.472;8.166;2023-02-01T03:48:56;98919.97;;;4.35;91.07
54876;BME280;40764;48.472;8.166;2023-02-01T03:55:01;98897.72;;;4.33;90.74
54876;BME280;40764;48.472;8.166;2023-02-01T04:01:02;98893.59;;;4.30;91.40
54876;BME280;40764;48.472;8.166;2023-02-01T04:07:03;98870.00;;;4.14;92.70
54876;BME280;40764;48.472;8.166;2023-02-01T04:13:03;98868.19;;;4.20;92.08
54876;BME280;40764;48.472;8.166;2023-02-01T04:19:04;98864.44;;;4.21;91.39
54876;BME280;40764;48.472;8.166;2023-02-01T04:25:05;98860.19;;;4.25;91.26
54876;BME280;40764;48.472;8.166;2023-02-01T04:31:05;98877.50;;;4.24;91.40
54876;BME280;40764;48.472;8.166;2023-02-01T04:37:06;98887.34;;;4.30;90.55
54876;BME280;40764;48.472;8.166;2023-02-01T04:43:07;98883.25;;;4.27;90.97
54876;BME280;40764;48.472;8.166;2023-02-01T04:49:12;98896.78;;;4.27;90.39
54876;BME280;40764;48.472;8.166;2023-02-01T04:55:12;98877.81;;;4.39;89.10
54876;BME280;40764;48.472;8.166;2023-02-01T05:01:16;98884.53;;;4.37;89.24
54876;BME280;40764;48.472;8.166;2023-02-01T05:07:16;98895.44;;;4.53;88.74
54876;BME280;40764;48.472;8.166;2023-02-01T05:13:16;98900.16;;;4.46;87.94
54876;BME280;40764;48.472;8.166;2023-02-01T05:19:35;98900.75;;;4.48;88.43
54876;BME280;40764;48.472;8.166;2023-02-01T05:25:46;98908.41;;;4.51;88.21
54876;BME280;40764;48.472;8.166;2023-02-01T05:31:47;98909.31;;;4.57;87.96
54876;BME280;40764;48.472;8.166;2023-02-01T05:37:47;98925.81;;;4.55;87.75
54876;BME280;40764;48.472;8.166;2023-02-01T05:43:47;98942.97;;;4.73;87.37
54876;BME280;40764;48.472;8.166;2023-02-01T05:49:47;98926.97;;;4.71;86.59
54876;BME280;40764;48.472;8.166;2023-02-01T05:55:48;98943.41;;;4.81;85.97
54876;BME280;40764;48.472;8.166;2023-02-01T06:01:48;98961.88;;;4.84;85.49
54876;BME280;40764;48.472;8.166;2023-02-01T06:07:49;98972.72;;;4.96;85.07
54876;BME280;40764;48.472;8.166;2023-02-01T06:13:52;98957.38;;;5.02;84.85
54876;BME280;40764;48.472;8.166;2023-02-01T06:19:52;98945.22;;;5.04;84.24
54876;BME280;40764;48.472;8.166;2023-02-01T06:25:58;98961.72;;;5.03;84.93
54876;BME280;40764;48.472;8.166;2023-02-01T06:31:59;98968.34;;;4.95;85.57
54876;BME280;40764;48.472;8.166;2023-02-01T06:37:59;98954.38;;;4.75;88.39
54876;BME280;40764;48.472;8.166;2023-02-01T06:44:00;98961.25;;;4.65;90.08
54876;BME280;40764;48.472;8.166;2023-02-01T06:50:14;98976.91;;;4.52;90.59
54876;BME280;40764;48.472;8.166;2023-02-01T06:56:15;98974.31;;;4.57;91.10
54876;BME280;40764;48.472;8.166;2023-02-01T07:02:15;98976.78;;;4.58;90.84
54876;BME280;40764;48.472;8.166;2023-02-01T07:08:15;98983.25;;;4.69;90.96
54876;BME280;40764;48.472;8.166;2023-02-01T07:14:16;98981.72;;;4.73;90.77
54876;BME280;40764;48.472;8.166;2023-02-01T07:20:16;98989.63;;;4.63;90.75
54876;BME280;40764;48.472;8.166;2023-02-01T07:26:17;98977.50;;;4.65;90.25
54876;BME280;40764;48.472;8.166;2023-02-01T07:32:17;98974.06;;;4.70;89.47
54876;BME280;40764;48.472;8.166;2023-02-01T07:38:18;98978.44;;;4.48;90.75
54876;BME280;40764;48.472;8.166;2023-02-01T07:44:19;98994.44;;;4.49;91.05
54876;BME280;40764;48.472;8.166;2023-02-01T07:50:22;99001.50;;;4.62;89.65
54876;BME280;40764;48.472;8.166;2023-02-01T07:56:23;98995.97;;;4.57;89.97
54876;BME280;40764;48.472;8.166;2023-02-01T08:02:23;99013.50;;;4.54;90.82
54876;BME280;40764;48.472;8.166;2023-02-01T08:08:23;98994.56;;;4.54;90.36
54876;BME280;40764;48.472;8.166;2023-02-01T08:14:24;98996.78;;;4.57;89.54
54876;BME280;40764;48.472;8.166;2023-02-01T08:20:25;99001.03;;;4.53;89.91
54876;BME280;40764;48.472;8.166;2023-02-01T08:26:28;98996.31;;;4.60;88.91
54876;BME280;40764;48.472;8.166;2023-02-01T08:32:28;99000.91;;;4.72;88.16
54876;BME280;40764;48.472;8.166;2023-02-01T08:38:28;98996.03;;;4.97;86.17
54876;BME280;40764;48.472;8.166;2023-02-01T08:44:29;98988.00;;;5.02;85.08
54876;BME280;40764;48.472;8.166;2023-02-01T08:50:29;98998.59;;;5.04;84.72
54876;BME280;40764;48.472;8.166;2023-02-01T08:56:30;99010.16;;;4.99;84.78
54876;BME280;40764;48.472;8.166;2023-02-01T09:02:30;99016.53;;;4.93;85.62
54876;BME280;40764;48.472;8.166;2023-02-01T09:08:31;99024.34;;;5.18;84.62
54876;BME280;40764;48.472;8.166;2023-02-01T09:14:31;99035.03;;;5.36;81.50
54876;BME280;40764;48.472;8.166;2023-02-01T09:20:32;99047.84;;;5.41;81.63
54876;BME280;40764;48.472;8.166;2023-02-01T09:26:32;99030.09;;;5.62;82.21
54876;BME280;40764;48.472;8.166;2023-02-01T09:32:33;99047.91;;;5.57;81.25
54876;BME280;40764;48.472;8.166;2023-02-01T09:38:33;99032.31;;;5.65;81.05
54876;BME280;40764;48.472;8.166;2023-02-01T09:50:49;99041.34;;;5.53;81.39
54876;BME280;40764;48.472;8.166;2023-02-01T09:57:13;99062.72;;;5.38;82.40
54876;BME280;40764;48.472;8.166;2023-02-01T10:03:14;99054.50;;;5.33;83.10
54876;BME280;40764;48.472;8.166;2023-02-01T10:28:22;99065.59;;;5.60;80.56
54876;BME280;40764;48.472;8.166;2023-02-01T10:34:32;99065.34;;;5.62;80.48
54876;BME280;40764;48.472;8.166;2023-02-01T10:40:34;99066.44;;;5.77;79.91
54876;BME280;40764;48.472;8.166;2023-02-01T10:46:37;99079.34;;;5.99;78.37
54876;BME280;40764;48.472;8.166;2023-02-01T10:59:05;99064.56;;;6.06;76.79
54876;BME280;40764;48.472;8.166;2023-02-01T11:05:10;99068.84;;;6.02;76.54
54876;BME280;40764;48.472;8.166;2023-02-01T11:11:12;99064.47;;;6.01;75.10
54876;BME280;40764;48.472;8.166;2023-02-01T11:23:24;99057.69;;;5.87;75.65
54876;BME280;40764;48.472;8.166;2023-02-01T11:29:25;99041.06;;;5.83;76.02
54876;BME280;40764;48.472;8.166;2023-02-01T11:35:37;99006.56;;;5.96;75.90
54876;BME280;40764;48.472;8.166;2023-02-01T11:41:57;98994.88;;;5.78;76.84
54876;BME280;40764;48.472;8.166;2023-02-01T11:47:59;99003.38;;;5.70;77.38
54876;BME280;40764;48.472;8.166;2023-02-01T12:06:31;98979.22;;;5.69;78.64
54876;BME280;40764;48.472;8.166;2023-02-01T12:12:38;98972.22;;;5.56;79.06
54876;BME280;40764;48.472;8.166;2023-02-01T12:31:55;98995.41;;;5.64;76.95
54876;BME280;40764;48.472;8.166;2023-02-01T12:44:55;98979.47;;;5.67;77.45
54876;BME280;40764;48.472;8.166;2023-02-01T12:51:00;98966.31;;;5.76;76.80
54876;BME280;40764;48.472;8.166;2023-02-01T12:57:06;98987.75;;;5.77;76.75
54876;BME280;40764;48.472;8.166;2023-02-01T13:22:00;98967.28;;;5.70;77.53
54876;BME280;40764;48.472;8.166;2023-02-01T13:28:11;98971.94;;;5.86;77.16
54876;BME280;40764;48.472;8.166;2023-02-01T13:47:08;98941.00;;;5.87;76.40
54876;BME280;40764;48.472;8.166;2023-02-01T14:11:48;98944.78;;;5.86;74.46
54876;BME280;40764;48.472;8.166;2023-02-01T14:17:49;98943.91;;;5.80;73.82
54876;BME280;40764;48.472;8.166;2023-02-01T14:29:57;98940.44;;;5.85;74.05
54876;BME280;40764;48.472;8.166;2023-02-01T14:36:09;98965.72;;;5.74;74.60
54876;BME280;40764;48.472;8.166;2023-02-01T14:48:41;98976.91;;;5.77;74.47
54876;BME280;40764;48.472;8.166;2023-02-01T14:54:46;98978.97;;;5.70;73.91
54876;BME280;40764;48.472;8.166;2023-02-01T15:01:17;98979.47;;;5.67;74.64
54876;BME280;40764;48.472;8.166;2023-02-01T15:07:18;98988.84;;;5.76;73.36
54876;BME280;40764;48.472;8.166;2023-02-01T15:13:27;98996.50;;;5.79;72.99
54876;BME280;40764;48.472;8.166;2023-02-01T15:19:29;98997.91;;;5.82;72.27
54876;BME280;40764;48.472;8.166;2023-02-01T15:25:33;98984.00;;;5.78;72.36
54876;BME280;40764;48.472;8.166;2023-02-01T15:31:42;98997.53;;;5.62;74.30
54876;BME280;40764;48.472;8.166;2023-02-01T15:37:44;98987.09;;;5.53;75.00
54876;BME280;40764;48.472;8.166;2023-02-01T15:50:03;98994.34;;;5.65;74.25
54876;BME280;40764;48.472;8.166;2023-02-01T15:56:04;99000.50;;;5.60;74.39
54876;BME280;40764;48.472;8.166;2023-02-01T16:02:34;98979.47;;;5.67;74.20
54876;BME280;40764;48.472;8.166;2023-02-01T16:08:35;98990.31;;;5.50;74.79
54876;BME280;40764;48.472;8.166;2023-02-01T16:14:37;98982.75;;;5.52;75.01
54876;BME280;40764;48.472;8.166;2023-02-01T16:20:39;98995.31;;;5.58;74.67
54876;BME280;40764;48.472;8.166;2023-02-01T16:26:39;99004.44;;;5.52;75.96
54876;BME280;40764;48.472;8.166;2023-02-01T16:32:40;99014.78;;;5.27;78.09
54876;BME280;40764;48.472;8.166;2023-02-01T16:38:40;99017.75;;;5.25;79.09
54876;BME280;40764;48.472;8.166;2023-02-01T16:44:42;99008.41;;;5.33;78.71
54876;BME280;40764;48.472;8.166;2023-02-01T16:50:42;99013.97;;;5.26;78.53
54876;BME280;40764;48.472;8.166;2023-02-01T16:56:44;99024.09;;;5.31;77.79
54876;BME280;40764;48.472;8.166;2023-02-01T17:02:47;99014.00;;;5.43;76.63
54876;BME280;40764;48.472;8.166;2023-02-01T17:08:50;99009.41;;;5.44;76.43
54876;BME280;40764;48.472;8.166;2023-02-01T17:14:52;99003.13;;;5.55;75.92
54876;BME280;40764;48.472;8.166;2023-02-01T17:20:53;99014.63;;;5.62;74.72
54876;BME280;40764;48.472;8.166;2023-02-01T17:26:53;99021.56;;;5.70;74.73
54876;BME280;40764;48.472;8.166;2023-02-01T17:32:54;99008.16;;;5.63;74.70
54876;BME280;40764;48.472;8.166;2023-02-01T17:38:55;99027.81;;;5.70;74.34
54876;BME280;40764;48.472;8.166;2023-02-01T17:45:01;99035.78;;;5.77;75.03
54876;BME280;40764;48.472;8.166;2023-02-01T17:51:21;99051.44;;;5.86;74.85
54876;BME280;40764;48.472;8.166;2023-02-01T17:57:21;99065.44;;;5.67;77.83
54876;BME280;40764;48.472;8.166;2023-02-01T18:03:28;99058.38;;;5.37;81.76
54876;BME280;40764;48.472;8.166;2023-02-01T18:09:29;99042.97;;;5.14;82.70
54876;BME280;40764;48.472;8.166;2023-02-01T18:15:30;99037.38;;;5.04;83.81
54876;BME280;40764;48.472;8.166;2023-02-01T18:21:40;99035.63;;;4.98;84.67
54876;BME280;40764;48.472;8.166;2023-02-01T18:27:42;99045.72;;;5.03;83.90
54876;BME280;40764;48.472;8.166;2023-02-01T18:33:42;99051.59;;;5.11;83.37
54876;BME280;40764;48.472;8.166;2023-02-01T18:39:44;99051.06;;;4.97;84.63
54876;BME280;40764;48.472;8.166;2023-02-01T18:45:45;99051.25;;;5.08;84.12
54876;BME280;40764;48.472;8.166;2023-02-01T18:51:46;99039.50;;;4.90;85.27
54876;BME280;40764;48.472;8.166;2023-02-01T18:57:46;99049.31;;;4.68;87.69
54876;BME280;40764;48.472;8.166;2023-02-01T19:04:01;99048.25;;;4.69;87.10
54876;BME280;40764;48.472;8.166;2023-02-01T19:10:18;99050.84;;;4.64;87.81
54876;BME280;40764;48.472;8.166;2023-02-01T19:16:35;99060.84;;;4.75;87.22
54876;BME280;40764;48.472;8.166;2023-02-01T19:22:38;99056.38;;;4.92;85.48
54876;BME280;40764;48.472;8.166;2023-02-01T19:28:40;99042.44;;;4.89;84.49
54876;BME280;40764;48.472;8.166;2023-02-01T19:34:41;99046.91;;;5.07;82.57
54876;BME280;40764;48.472;8.166;2023-02-01T19:40:41;99051.22;;;5.19;81.57
54876;BME280;40764;48.472;8.166;2023-02-01T19:46:41;99051.78;;;5.33;81.27
54876;BME280;40764;48.472;8.166;2023-02-01T19:52:42;99054.72;;;5.32;80.52
54876;BME280;40764;48.472;8.166;2023-02-01T19:58:42;99052.13;;;5.37;80.32
54876;BME280;40764;48.472;8.166;2023-02-01T20:04:42;99058.69;;;5.41;80.75
54876;BME280;40764;48.472;8.166;2023-02-01T20:10:44;99062.44;;;5.23;81.68
54876;BME280;40764;48.472;8.166;2023-02-01T20:16:44;99065.25;;;5.16;82.49
54876;BME280;40764;48.472;8.166;2023-02-01T20:22:48;99060.88;;;5.27;81.91
54876;BME280;40764;48.472;8.166;2023-02-01T20:28:48;99046.41;;;5.21;80.45
54876;BME280;40764;48.472;8.166;2023-02-01T20:34:49;99054.72;;;5.32;79.90
54876;BME280;40764;48.472;8.166;2023-02-01T20:40:52;99053.84;;;5.43;78.43
54876;BME280;40764;48.472;8.166;2023-02-01T20:46:52;99054.69;;;5.43;78.40
54876;BME280;40764;48.472;8.166;2023-02-01T20:52:54;99050.47;;;5.36;79.57
54876;BME280;40764;48.472;8.166;2023-02-01T20:59:03;99063.94;;;5.31;79.39
54876;BME280;40764;48.472;8.166;2023-02-01T21:05:12;99064.16;;;5.29;79.62
54876;BME280;40764;48.472;8.166;2023-02-01T21:11:13;99053.66;;;5.33;79.10
54876;BME280;40764;48.472;8.166;2023-02-01T21:17:14;99060.34;;;5.42;78.68
54876;BME280;40764;48.472;8.166;2023-02-01T21:23:15;99062.09;;;5.48;78.17
54876;BME280;40764;48.472;8.166;2023-02-01T21:29:16;99060.84;;;5.39;78.90
54876;BME280;40764;48.472;8.166;2023-02-01T21:35:25;99065.19;;;5.40;78.83
54876;BME280;40764;48.472;8.166;2023-02-01T21:41:25;99052.47;;;5.40;78.75
54876;BME280;40764;48.472;8.166;2023-02-01T21:47:44;99066.84;;;5.41;79.09
54876;BME280;40764;48.472;8.166;2023-02-01T21:53:51;99050.66;;;5.46;78.54
54876;BME280;40764;48.472;8.166;2023-02-01T21:59:51;99067.31;;;5.49;78.69
54876;BME280;40764;48.472;8.166;2023-02-01T22:05:52;99075.88;;;5.46;79.65
54876;BME280;40764;48.472;8.166;2023-02-01T22:11:53;99091.91;;;5.48;80.75
54876;BME280;40764;48.472;8.166;2023-02-01T22:17:54;99097.81;;;5.45;82.76
54876;BME280;40764;48.472;8.166;2023-02-01T22:23:56;99086.53;;;5.36;84.21
54876;BME280;40764;48.472;8.166;2023-02-01T22:29:58;99077.16;;;5.15;86.06
54876;BME280;40764;48.472;8.166;2023-02-01T22:35:59;99078.25;;;5.03;86.98
54876;BME280;40764;48.472;8.166;2023-02-01T22:41:59;99078.63;;;4.83;88.63
54876;BME280;40764;48.472;8.166;2023-02-01T22:47:59;99084.63;;;4.73;88.64
54876;BME280;40764;48.472;8.166;2023-02-01T22:54:00;99093.22;;;4.82;88.73
54876;BME280;40764;48.472;8.166;2023-02-01T23:00:00;99078.50;;;4.78;89.79
54876;BME280;40764;48.472;8.166;2023-02-01T23:06:02;99089.22;;;4.73;89.94
54876;BME280;40764;48.472;8.166;2023-02-01T23:12:02;99088.53;;;4.77;89.66
54876;BME280;40764;48.472;8.166;2023-02-01T23:18:03;99077.44;;;4.79;89.70
54876;BME280;40764;48.472;8.166;2023-02-01T23:24:03;99071.56;;;4.82;89.30
54876;BME280;40764;48.472;8.166;2023-02-01T23:30:07;99080.59;;;4.87;89.10
54876;BME280;40764;48.472;8.166;2023-02-01T23:36:10;99092.28;;;4.76;88.80
54876;BME280;40764;48.472;8.166;2023-02-01T23:42:11;99087.00;;;4.93;87.70
54876;BME280;40764;48.472;8.166;2023-02-01T23:48:11;99078.88;;;4.93;87.83
54876;BME280;40764;48.472;8.166;2023-02-01T23:54:12;99086.28;;;4.97;86.90
